This is the latest recevied weather packets stored in our database for station/object AE5TC. If no packets are shown the sender has not sent any weather packets the latest 10 day(s).
| Time | Temp. | Humidity | Pressure | Rain* | Wind** | Luminosity | Snow |
|---|---|---|---|---|---|---|---|
| 1777733760 | 16.11° C | 99% | 1010.1 hPa | 0 mm | - | 100 W/m² | - |
| 1777733456 | 16.11° C | 99% | 1009.7 hPa | 0 mm | - | 137 W/m² | - |
| 1777733152 | 16.11° C | 99% | 1009.8 hPa | 0 mm | - | 77 W/m² | - |
| 1777732849 | 15.56° C | 99% | 1009.8 hPa | 0 mm | - | 61 W/m² | - |
| 1777732546 | 15.56° C | 99% | 1009.8 hPa | 0 mm | - | 54 W/m² | - |
| 1777732244 | 16.11° C | 99% | 1010 hPa | 0 mm | - | 58 W/m² | - |
| 1777731941 | 15.56° C | 99% | 1009.5 hPa | 0 mm | - | 103 W/m² | - |
| 1777731637 | 15.56° C | 99% | 1009.4 hPa | 0 mm | - | 95 W/m² | - |
| 1777731335 | 15.56° C | 99% | 1009.7 hPa | 0 mm | - | 93 W/m² | - |
| 1777731032 | 15.56° C | 99% | 1009.9 hPa | 0 mm | - | 83 W/m² | - |
| 1777730731 | 15.56° C | 99% | 1009.8 hPa | 0 mm | - | 73 W/m² | - |
| 1777730427 | 15.56° C | 99% | 1010 hPa | 0 mm | - | 48 W/m² | - |
| 1777730122 | 15.56° C | 99% | 1010 hPa | 0 mm | - | 46 W/m² | - |
| 1777729820 | 15.56° C | 99% | 1009.8 hPa | 1.78 mm | - | 37 W/m² | - |
| 1777729516 | 15.56° C | 99% | 1009.6 hPa | 1.78 mm | - | 30 W/m² | - |
| 1777729213 | 15.56° C | 99% | 1009.8 hPa | 0 mm | - | 25 W/m² | - |
| 1777728910 | 15.56° C | 99% | 1009.3 hPa | 0 mm | - | 55 W/m² | - |
| 1777728607 | 15.56° C | 99% | 1009.5 hPa | 1.78 mm | - | 22 W/m² | - |
| 1777728304 | 15.56° C | 99% | 1009.5 hPa | 1.78 mm | - | 15 W/m² | - |
| 1777728001 | 15.56° C | 99% | 1009.6 hPa | 0 mm | - | 16 W/m² | - |
| 1777727698 | 15.56° C | 99% | 1009.7 hPa | 0 mm | - | 24 W/m² | - |
| 1777727395 | 15.56° C | 99% | 1010.1 hPa | 0 mm | - | 26 W/m² | - |
| 1777727092 | 15° C | 99% | 1010.1 hPa | 1.27 mm | - | 23 W/m² | - |
| 1777726790 | 15.56° C | 99% | 1010.3 hPa | 3.05 mm | - | 11 W/m² | - |
| 1777726486 | 15° C | 99% | 1010.1 hPa | 1.78 mm | - | 13 W/m² | - |
* Rain latest hour (hover to see other rain measurements)
** Current wind speed in m/s (hover to see current wind gust speed)